sensor_id;sensor_type;location;lat;lon;timestamp;P1;durP1;ratioP1;P2;durP2;ratioP2
10293;SDS011;5192;50.328;7.610;2022-09-21T00:00:47;4.00;;;3.37;;
10293;SDS011;5192;50.328;7.610;2022-09-21T00:03:13;6.23;;;3.30;;
10293;SDS011;5192;50.328;7.610;2022-09-21T00:05:40;6.00;;;3.80;;
10293;SDS011;5192;50.328;7.610;2022-09-21T00:08:06;6.27;;;3.67;;
10293;SDS011;5192;50.328;7.610;2022-09-21T00:10:33;4.80;;;3.70;;
10293;SDS011;5192;50.328;7.610;2022-09-21T00:12:59;6.80;;;3.90;;
10293;SDS011;5192;50.328;7.610;2022-09-21T00:15:28;6.53;;;3.43;;
10293;SDS011;5192;50.328;7.610;2022-09-21T00:17:55;7.73;;;4.30;;
10293;SDS011;5192;50.328;7.610;2022-09-21T00:20:22;5.17;;;4.33;;
10293;SDS011;5192;50.328;7.610;2022-09-21T00:22:49;12.07;;;5.67;;
10293;SDS011;5192;50.328;7.610;2022-09-21T00:25:15;16.20;;;7.63;;
10293;SDS011;5192;50.328;7.610;2022-09-21T00:27:41;28.83;;;7.80;;
10293;SDS011;5192;50.328;7.610;2022-09-21T00:30:07;19.67;;;7.40;;
10293;SDS011;5192;50.328;7.610;2022-09-21T00:32:34;13.87;;;8.27;;
10293;SDS011;5192;50.328;7.610;2022-09-21T00:35:02;28.77;;;9.50;;
10293;SDS011;5192;50.328;7.610;2022-09-21T00:37:29;111.93;;;14.63;;
10293;SDS011;5192;50.328;7.610;2022-09-21T00:39:57;68.60;;;12.90;;
10293;SDS011;5192;50.328;7.610;2022-09-21T00:42:28;426.40;;;26.70;;
10293;SDS011;5192;50.328;7.610;2022-09-21T00:44:56;84.87;;;13.10;;
10293;SDS011;5192;50.328;7.610;2022-09-21T00:49:57;16.87;;;9.87;;
10293;SDS011;5192;50.328;7.610;2022-09-21T00:52:25;18.57;;;9.07;;
10293;SDS011;5192;50.328;7.610;2022-09-21T00:55:07;44.93;;;10.20;;
10293;SDS011;5192;50.328;7.610;2022-09-21T00:57:38;43.17;;;10.17;;
10293;SDS011;5192;50.328;7.610;2022-09-21T01:00:06;13.83;;;8.83;;
10293;SDS011;5192;50.328;7.610;2022-09-21T01:02:34;10.03;;;8.17;;
10293;SDS011;5192;50.328;7.610;2022-09-21T01:05:02;13.80;;;9.00;;
10293;SDS011;5192;50.328;7.610;2022-09-21T01:07:33;16.37;;;8.40;;
10293;SDS011;5192;50.328;7.610;2022-09-21T01:10:04;11.30;;;8.37;;
10293;SDS011;5192;50.328;7.610;2022-09-21T01:18:00;23.37;;;8.70;;
10293;SDS011;5192;50.328;7.610;2022-09-21T01:31:35;16.67;;;7.97;;
10293;SDS011;5192;50.328;7.610;2022-09-21T01:34:07;8.73;;;6.23;;
10293;SDS011;5192;50.328;7.610;2022-09-21T01:36:41;18.27;;;7.03;;
10293;SDS011;5192;50.328;7.610;2022-09-21T01:39:11;10.30;;;7.40;;
10293;SDS011;5192;50.328;7.610;2022-09-21T01:41:39;10.90;;;7.53;;
10293;SDS011;5192;50.328;7.610;2022-09-21T01:44:08;13.10;;;7.80;;
10293;SDS011;5192;50.328;7.610;2022-09-21T01:46:37;10.57;;;7.47;;
10293;SDS011;5192;50.328;7.610;2022-09-21T01:49:23;20.97;;;8.50;;
10293;SDS011;5192;50.328;7.610;2022-09-21T01:52:04;13.13;;;8.40;;
10293;SDS011;5192;50.328;7.610;2022-09-21T01:54:41;15.93;;;8.33;;
10293;SDS011;5192;50.328;7.610;2022-09-21T01:57:25;13.53;;;7.87;;
10293;SDS011;5192;50.328;7.610;2022-09-21T01:59:59;13.00;;;7.87;;
10293;SDS011;5192;50.328;7.610;2022-09-21T02:05:19;8.70;;;7.07;;
10293;SDS011;5192;50.328;7.610;2022-09-21T02:07:47;11.63;;;7.63;;
10293;SDS011;5192;50.328;7.610;2022-09-21T02:10:16;9.70;;;8.00;;
10293;SDS011;5192;50.328;7.610;2022-09-21T02:12:47;29.33;;;10.43;;
10293;SDS011;5192;50.328;7.610;2022-09-21T02:15:19;11.53;;;8.20;;
10293;SDS011;5192;50.328;7.610;2022-09-21T02:20:29;39.80;;;9.47;;
10293;SDS011;5192;50.328;7.610;2022-09-21T02:23:02;19.87;;;8.70;;
10293;SDS011;5192;50.328;7.610;2022-09-21T02:25:32;14.67;;;7.13;;
10293;SDS011;5192;50.328;7.610;2022-09-21T02:28:36;40.87;;;8.90;;
10293;SDS011;5192;50.328;7.610;2022-09-21T02:36:36;13.63;;;8.37;;
10293;SDS011;5192;50.328;7.610;2022-09-21T02:39:56;16.40;;;8.93;;
10293;SDS011;5192;50.328;7.610;2022-09-21T02:42:18;12.23;;;8.83;;
10293;SDS011;5192;50.328;7.610;2022-09-21T02:44:54;15.53;;;9.10;;
10293;SDS011;5192;50.328;7.610;2022-09-21T02:47:38;34.57;;;10.70;;
10293;SDS011;5192;50.328;7.610;2022-09-21T02:50:16;21.23;;;11.83;;
10293;SDS011;5192;50.328;7.610;2022-09-21T02:52:48;108.67;;;14.17;;
10293;SDS011;5192;50.328;7.610;2022-09-21T02:55:16;126.07;;;14.97;;
10293;SDS011;5192;50.328;7.610;2022-09-21T02:57:42;138.73;;;17.23;;
10293;SDS011;5192;50.328;7.610;2022-09-21T03:00:11;61.80;;;14.20;;
10293;SDS011;5192;50.328;7.610;2022-09-21T03:02:43;84.43;;;14.43;;
10293;SDS011;5192;50.328;7.610;2022-09-21T03:05:12;40.07;;;12.43;;
10293;SDS011;5192;50.328;7.610;2022-09-21T03:07:38;135.73;;;17.70;;
10293;SDS011;5192;50.328;7.610;2022-09-21T03:10:04;127.93;;;15.83;;
10293;SDS011;5192;50.328;7.610;2022-09-21T03:12:33;279.37;;;20.97;;
10293;SDS011;5192;50.328;7.610;2022-09-21T03:14:58;81.77;;;15.73;;
10293;SDS011;5192;50.328;7.610;2022-09-21T03:17:24;54.27;;;12.93;;
10293;SDS011;5192;50.328;7.610;2022-09-21T03:19:51;216.47;;;19.47;;
10293;SDS011;5192;50.328;7.610;2022-09-21T03:22:19;131.90;;;16.50;;
10293;SDS011;5192;50.328;7.610;2022-09-21T03:24:48;249.37;;;20.87;;
10293;SDS011;5192;50.328;7.610;2022-09-21T03:27:15;130.73;;;15.33;;
10293;SDS011;5192;50.328;7.610;2022-09-21T03:29:43;136.17;;;15.13;;
10293;SDS011;5192;50.328;7.610;2022-09-21T03:32:09;308.17;;;23.07;;
10293;SDS011;5192;50.328;7.610;2022-09-21T03:34:35;251.90;;;19.17;;
10293;SDS011;5192;50.328;7.610;2022-09-21T03:37:01;39.67;;;12.40;;
10293;SDS011;5192;50.328;7.610;2022-09-21T03:39:27;103.40;;;15.57;;
10293;SDS011;5192;50.328;7.610;2022-09-21T03:41:52;110.77;;;14.90;;
10293;SDS011;5192;50.328;7.610;2022-09-21T03:44:21;167.43;;;17.93;;
10293;SDS011;5192;50.328;7.610;2022-09-21T03:46:47;89.30;;;14.70;;
10293;SDS011;5192;50.328;7.610;2022-09-21T03:49:14;41.33;;;12.73;;
10293;SDS011;5192;50.328;7.610;2022-09-21T03:51:43;219.37;;;17.90;;
10293;SDS011;5192;50.328;7.610;2022-09-21T03:54:11;249.27;;;19.47;;
10293;SDS011;5192;50.328;7.610;2022-09-21T03:56:36;133.43;;;15.60;;
10293;SDS011;5192;50.328;7.610;2022-09-21T03:59:02;104.30;;;15.73;;
10293;SDS011;5192;50.328;7.610;2022-09-21T04:01:28;143.57;;;16.40;;
10293;SDS011;5192;50.328;7.610;2022-09-21T04:03:54;85.00;;;14.47;;
10293;SDS011;5192;50.328;7.610;2022-09-21T04:06:19;37.60;;;12.90;;
10293;SDS011;5192;50.328;7.610;2022-09-21T04:08:47;117.20;;;13.87;;
10293;SDS011;5192;50.328;7.610;2022-09-21T04:11:13;46.27;;;11.90;;
10293;SDS011;5192;50.328;7.610;2022-09-21T04:13:40;29.30;;;11.60;;
10293;SDS011;5192;50.328;7.610;2022-09-21T04:16:06;26.20;;;11.03;;
10293;SDS011;5192;50.328;7.610;2022-09-21T04:18:34;20.87;;;10.83;;
10293;SDS011;5192;50.328;7.610;2022-09-21T04:21:02;32.07;;;11.33;;
10293;SDS011;5192;50.328;7.610;2022-09-21T04:23:31;39.10;;;11.23;;
10293;SDS011;5192;50.328;7.610;2022-09-21T04:25:57;88.60;;;12.13;;
10293;SDS011;5192;50.328;7.610;2022-09-21T04:28:23;80.50;;;13.03;;
10293;SDS011;5192;50.328;7.610;2022-09-21T04:30:52;22.33;;;10.27;;
10293;SDS011;5192;50.328;7.610;2022-09-21T04:33:19;26.40;;;11.30;;
10293;SDS011;5192;50.328;7.610;2022-09-21T04:35:46;83.37;;;12.60;;
10293;SDS011;5192;50.328;7.610;2022-09-21T04:38:12;62.43;;;11.63;;
10293;SDS011;5192;50.328;7.610;2022-09-21T04:40:37;53.07;;;11.37;;
10293;SDS011;5192;50.328;7.610;2022-09-21T04:43:03;22.47;;;9.30;;
10293;SDS011;5192;50.328;7.610;2022-09-21T04:45:28;14.60;;;8.60;;
10293;SDS011;5192;50.328;7.610;2022-09-21T04:47:56;13.50;;;7.43;;
10293;SDS011;5192;50.328;7.610;2022-09-21T04:50:22;13.17;;;7.33;;
10293;SDS011;5192;50.328;7.610;2022-09-21T04:52:49;13.13;;;8.10;;
10293;SDS011;5192;50.328;7.610;2022-09-21T04:55:18;12.60;;;6.63;;
10293;SDS011;5192;50.328;7.610;2022-09-21T04:57:44;11.97;;;6.93;;
10293;SDS011;5192;50.328;7.610;2022-09-21T05:00:09;11.63;;;6.87;;
10293;SDS011;5192;50.328;7.610;2022-09-21T05:02:35;10.77;;;7.10;;
10293;SDS011;5192;50.328;7.610;2022-09-21T05:05:01;11.50;;;6.30;;
10293;SDS011;5192;50.328;7.610;2022-09-21T05:07:29;12.43;;;7.43;;
10293;SDS011;5192;50.328;7.610;2022-09-21T05:09:55;15.63;;;7.93;;
10293;SDS011;5192;50.328;7.610;2022-09-21T05:12:26;14.03;;;7.67;;
10293;SDS011;5192;50.328;7.610;2022-09-21T05:14:52;12.20;;;7.50;;
10293;SDS011;5192;50.328;7.610;2022-09-21T05:17:19;15.93;;;7.63;;
10293;SDS011;5192;50.328;7.610;2022-09-21T05:19:50;22.53;;;11.73;;
10293;SDS011;5192;50.328;7.610;2022-09-21T05:22:17;21.73;;;11.17;;
10293;SDS011;5192;50.328;7.610;2022-09-21T05:24:43;19.63;;;10.87;;
10293;SDS011;5192;50.328;7.610;2022-09-21T05:27:09;18.13;;;9.50;;
10293;SDS011;5192;50.328;7.610;2022-09-21T05:29:36;28.70;;;10.37;;
10293;SDS011;5192;50.328;7.610;2022-09-21T05:40:23;21.67;;;11.00;;
10293;SDS011;5192;50.328;7.610;2022-09-21T05:42:49;22.43;;;11.03;;
10293;SDS011;5192;50.328;7.610;2022-09-21T05:45:16;33.20;;;11.07;;
10293;SDS011;5192;50.328;7.610;2022-09-21T05:50:51;57.10;;;11.60;;
10293;SDS011;5192;50.328;7.610;2022-09-21T05:56:15;26.37;;;10.90;;
10293;SDS011;5192;50.328;7.610;2022-09-21T05:59:17;30.63;;;10.77;;
10293;SDS011;5192;50.328;7.610;2022-09-21T06:04:52;35.70;;;10.53;;
10293;SDS011;5192;50.328;7.610;2022-09-21T06:07:29;40.47;;;11.27;;
10293;SDS011;5192;50.328;7.610;2022-09-21T06:10:00;46.73;;;10.23;;
10293;SDS011;5192;50.328;7.610;2022-09-21T06:12:25;89.13;;;12.97;;
10293;SDS011;5192;50.328;7.610;2022-09-21T06:14:51;27.30;;;9.67;;
10293;SDS011;5192;50.328;7.610;2022-09-21T06:17:20;33.90;;;9.43;;
10293;SDS011;5192;50.328;7.610;2022-09-21T06:19:46;12.37;;;7.90;;
10293;SDS011;5192;50.328;7.610;2022-09-21T06:22:11;10.70;;;6.27;;
10293;SDS011;5192;50.328;7.610;2022-09-21T06:24:42;10.00;;;6.20;;
10293;SDS011;5192;50.328;7.610;2022-09-21T06:27:08;7.83;;;5.20;;
10293;SDS011;5192;50.328;7.610;2022-09-21T06:29:33;8.70;;;5.77;;
10293;SDS011;5192;50.328;7.610;2022-09-21T06:32:01;8.43;;;5.97;;
10293;SDS011;5192;50.328;7.610;2022-09-21T06:34:27;10.43;;;6.47;;
10293;SDS011;5192;50.328;7.610;2022-09-21T06:36:52;11.40;;;7.07;;
10293;SDS011;5192;50.328;7.610;2022-09-21T06:39:21;11.90;;;6.60;;
10293;SDS011;5192;50.328;7.610;2022-09-21T06:41:47;10.57;;;7.20;;
10293;SDS011;5192;50.328;7.610;2022-09-21T06:44:12;15.00;;;7.40;;
10293;SDS011;5192;50.328;7.610;2022-09-21T06:46:41;12.30;;;7.17;;
10293;SDS011;5192;50.328;7.610;2022-09-21T06:49:06;14.37;;;7.33;;
10293;SDS011;5192;50.328;7.610;2022-09-21T06:51:32;16.40;;;8.87;;
10293;SDS011;5192;50.328;7.610;2022-09-21T06:54:00;21.87;;;9.53;;
10293;SDS011;5192;50.328;7.610;2022-09-21T06:56:26;24.43;;;9.63;;
10293;SDS011;5192;50.328;7.610;2022-09-21T06:58:52;11.33;;;7.50;;
10293;SDS011;5192;50.328;7.610;2022-09-21T07:01:21;12.40;;;8.43;;
10293;SDS011;5192;50.328;7.610;2022-09-21T07:03:48;9.40;;;7.00;;
10293;SDS011;5192;50.328;7.610;2022-09-21T07:06:20;9.40;;;6.27;;
10293;SDS011;5192;50.328;7.610;2022-09-21T07:08:46;8.00;;;5.93;;
10293;SDS011;5192;50.328;7.610;2022-09-21T07:11:22;8.17;;;6.43;;
10293;SDS011;5192;50.328;7.610;2022-09-21T07:13:48;8.87;;;6.70;;
10293;SDS011;5192;50.328;7.610;2022-09-21T07:16:14;16.40;;;7.40;;
10293;SDS011;5192;50.328;7.610;2022-09-21T07:18:44;12.13;;;7.00;;
10293;SDS011;5192;50.328;7.610;2022-09-21T07:21:10;15.63;;;8.80;;
10293;SDS011;5192;50.328;7.610;2022-09-21T07:23:41;13.43;;;7.90;;
10293;SDS011;5192;50.328;7.610;2022-09-21T07:26:11;23.87;;;9.60;;
10293;SDS011;5192;50.328;7.610;2022-09-21T07:28:42;153.03;;;14.87;;
10293;SDS011;5192;50.328;7.610;2022-09-21T07:31:10;92.33;;;14.80;;
10293;SDS011;5192;50.328;7.610;2022-09-21T07:33:42;21.83;;;11.80;;
10293;SDS011;5192;50.328;7.610;2022-09-21T07:36:11;30.03;;;11.60;;
10293;SDS011;5192;50.328;7.610;2022-09-21T07:38:41;21.00;;;10.30;;
10293;SDS011;5192;50.328;7.610;2022-09-21T07:41:11;54.90;;;12.50;;
10293;SDS011;5192;50.328;7.610;2022-09-21T07:43:41;16.90;;;10.73;;
10293;SDS011;5192;50.328;7.610;2022-09-21T07:46:07;17.97;;;11.83;;
10293;SDS011;5192;50.328;7.610;2022-09-21T07:48:34;29.37;;;10.70;;
10293;SDS011;5192;50.328;7.610;2022-09-21T07:51:06;48.10;;;11.13;;
10293;SDS011;5192;50.328;7.610;2022-09-21T07:53:34;14.80;;;10.73;;
10293;SDS011;5192;50.328;7.610;2022-09-21T07:56:11;17.23;;;10.73;;
10293;SDS011;5192;50.328;7.610;2022-09-21T07:58:41;11.03;;;8.53;;
10293;SDS011;5192;50.328;7.610;2022-09-21T08:01:30;14.07;;;9.40;;
10293;SDS011;5192;50.328;7.610;2022-09-21T08:04:03;20.17;;;9.10;;
10293;SDS011;5192;50.328;7.610;2022-09-21T08:06:30;15.70;;;8.93;;
10293;SDS011;5192;50.328;7.610;2022-09-21T08:09:03;18.00;;;9.50;;
10293;SDS011;5192;50.328;7.610;2022-09-21T08:11:30;11.37;;;8.53;;
10293;SDS011;5192;50.328;7.610;2022-09-21T08:14:02;10.57;;;8.17;;
10293;SDS011;5192;50.328;7.610;2022-09-21T08:16:28;10.23;;;8.03;;
10293;SDS011;5192;50.328;7.610;2022-09-21T08:18:55;9.97;;;8.43;;
10293;SDS011;5192;50.328;7.610;2022-09-21T08:21:38;8.90;;;7.83;;
10293;SDS011;5192;50.328;7.610;2022-09-21T08:24:05;9.97;;;8.23;;
10293;SDS011;5192;50.328;7.610;2022-09-21T08:26:31;11.37;;;8.60;;
10293;SDS011;5192;50.328;7.610;2022-09-21T08:29:00;12.07;;;9.53;;
10293;SDS011;5192;50.328;7.610;2022-09-21T08:31:26;11.37;;;8.50;;
10293;SDS011;5192;50.328;7.610;2022-09-21T08:33:53;14.67;;;8.90;;
10293;SDS011;5192;50.328;7.610;2022-09-21T08:36:20;9.97;;;8.93;;
10293;SDS011;5192;50.328;7.610;2022-09-21T08:38:46;10.13;;;8.53;;
10293;SDS011;5192;50.328;7.610;2022-09-21T08:41:22;10.10;;;8.40;;
10293;SDS011;5192;50.328;7.610;2022-09-21T08:44:10;10.97;;;8.77;;
10293;SDS011;5192;50.328;7.610;2022-09-21T08:46:40;10.57;;;8.97;;
10293;SDS011;5192;50.328;7.610;2022-09-21T08:49:12;10.30;;;9.20;;
10293;SDS011;5192;50.328;7.610;2022-09-21T08:51:49;9.87;;;8.87;;
10293;SDS011;5192;50.328;7.610;2022-09-21T08:54:29;12.00;;;8.93;;
10293;SDS011;5192;50.328;7.610;2022-09-21T08:57:17;11.93;;;8.47;;
10293;SDS011;5192;50.328;7.610;2022-09-21T08:59:49;9.97;;;8.27;;
10293;SDS011;5192;50.328;7.610;2022-09-21T09:02:20;11.27;;;9.03;;
10293;SDS011;5192;50.328;7.610;2022-09-21T09:11:16;9.63;;;8.63;;
10293;SDS011;5192;50.328;7.610;2022-09-21T09:22:31;12.40;;;9.17;;
10293;SDS011;5192;50.328;7.610;2022-09-21T09:25:14;12.73;;;9.47;;
10293;SDS011;5192;50.328;7.610;2022-09-21T09:27:48;12.10;;;9.53;;
10293;SDS011;5192;50.328;7.610;2022-09-21T09:30:21;12.63;;;10.07;;
10293;SDS011;5192;50.328;7.610;2022-09-21T09:35:46;15.80;;;11.87;;
10293;SDS011;5192;50.328;7.610;2022-09-21T09:38:28;13.20;;;11.00;;
10293;SDS011;5192;50.328;7.610;2022-09-21T09:52:30;10.90;;;9.43;;
10293;SDS011;5192;50.328;7.610;2022-09-21T09:54:57;10.47;;;9.37;;
10293;SDS011;5192;50.328;7.610;2022-09-21T09:57:27;15.20;;;9.10;;
10293;SDS011;5192;50.328;7.610;2022-09-21T09:59:57;12.23;;;9.70;;
10293;SDS011;5192;50.328;7.610;2022-09-21T10:02:30;9.90;;;8.60;;
10293;SDS011;5192;50.328;7.610;2022-09-21T10:07:44;9.43;;;8.30;;
10293;SDS011;5192;50.328;7.610;2022-09-21T10:10:33;10.43;;;8.53;;
10293;SDS011;5192;50.328;7.610;2022-09-21T10:13:13;11.33;;;8.00;;
10293;SDS011;5192;50.328;7.610;2022-09-21T10:15:47;8.23;;;7.40;;
10293;SDS011;5192;50.328;7.610;2022-09-21T10:21:41;10.13;;;8.67;;
10293;SDS011;5192;50.328;7.610;2022-09-21T10:24:32;9.17;;;7.47;;
10293;SDS011;5192;50.328;7.610;2022-09-21T10:29:39;7.43;;;6.30;;
10293;SDS011;5192;50.328;7.610;2022-09-21T10:32:24;9.03;;;7.57;;
10293;SDS011;5192;50.328;7.610;2022-09-21T10:42:44;13.27;;;9.97;;
10293;SDS011;5192;50.328;7.610;2022-09-21T10:45:15;13.20;;;10.80;;
10293;SDS011;5192;50.328;7.610;2022-09-21T10:50:41;11.40;;;9.37;;
10293;SDS011;5192;50.328;7.610;2022-09-21T10:53:24;13.70;;;10.20;;
10293;SDS011;5192;50.328;7.610;2022-09-21T10:56:06;10.87;;;8.57;;
10293;SDS011;5192;50.328;7.610;2022-09-21T10:58:41;9.23;;;7.77;;
10293;SDS011;5192;50.328;7.610;2022-09-21T11:01:45;28.80;;;14.30;;
10293;SDS011;5192;50.328;7.610;2022-09-21T11:04:21;14.83;;;10.10;;
10293;SDS011;5192;50.328;7.610;2022-09-21T11:06:57;13.63;;;10.27;;
10293;SDS011;5192;50.328;7.610;2022-09-21T11:09:46;10.63;;;8.40;;
10293;SDS011;5192;50.328;7.610;2022-09-21T11:12:38;9.27;;;7.53;;
10293;SDS011;5192;50.328;7.610;2022-09-21T11:21:55;8.63;;;7.73;;
10293;SDS011;5192;50.328;7.610;2022-09-21T11:27:14;12.07;;;7.30;;
10293;SDS011;5192;50.328;7.610;2022-09-21T11:32:48;7.00;;;6.07;;
10293;SDS011;5192;50.328;7.610;2022-09-21T11:41:12;8.07;;;5.23;;
10293;SDS011;5192;50.328;7.610;2022-09-21T11:44:11;5.67;;;4.93;;
10293;SDS011;5192;50.328;7.610;2022-09-21T12:02:00;8.87;;;5.37;;
10293;SDS011;5192;50.328;7.610;2022-09-21T12:16:10;4.40;;;2.70;;
10293;SDS011;5192;50.328;7.610;2022-09-21T12:21:49;5.13;;;2.13;;
10293;SDS011;5192;50.328;7.610;2022-09-21T12:24:33;4.35;;;2.60;;
10293;SDS011;5192;50.328;7.610;2022-09-21T12:27:08;2.50;;;1.70;;
10293;SDS011;5192;50.328;7.610;2022-09-21T12:29:49;2.43;;;1.60;;
10293;SDS011;5192;50.328;7.610;2022-09-21T12:32:35;3.90;;;1.80;;
10293;SDS011;5192;50.328;7.610;2022-09-21T12:35:28;1.83;;;1.43;;
10293;SDS011;5192;50.328;7.610;2022-09-21T12:38:17;5.70;;;1.90;;
10293;SDS011;5192;50.328;7.610;2022-09-21T12:41:21;3.53;;;1.80;;
10293;SDS011;5192;50.328;7.610;2022-09-21T12:46:40;2.97;;;1.53;;
10293;SDS011;5192;50.328;7.610;2022-09-21T12:49:52;1.50;;;1.20;;
10293;SDS011;5192;50.328;7.610;2022-09-21T12:52:25;2.10;;;1.27;;
10293;SDS011;5192;50.328;7.610;2022-09-21T12:58:03;2.30;;;1.17;;
10293;SDS011;5192;50.328;7.610;2022-09-21T13:08:54;2.80;;;0.80;;
10293;SDS011;5192;50.328;7.610;2022-09-21T13:11:24;1.23;;;0.90;;
10293;SDS011;5192;50.328;7.610;2022-09-21T13:13:56;1.37;;;0.80;;
10293;SDS011;5192;50.328;7.610;2022-09-21T13:19:20;1.07;;;0.73;;
10293;SDS011;5192;50.328;7.610;2022-09-21T13:22:08;0.70;;;0.70;;
10293;SDS011;5192;50.328;7.610;2022-09-21T13:27:54;0.70;;;0.70;;
10293;SDS011;5192;50.328;7.610;2022-09-21T13:30:35;0.60;;;0.55;;
10293;SDS011;5192;50.328;7.610;2022-09-21T13:44:03;1.50;;;0.70;;
10293;SDS011;5192;50.328;7.610;2022-09-21T13:46:49;1.63;;;0.55;;
10293;SDS011;5192;50.328;7.610;2022-09-21T13:49:24;0.73;;;0.52;;
10293;SDS011;5192;50.328;7.610;2022-09-21T13:52:17;0.82;;;0.60;;
10293;SDS011;5192;50.328;7.610;2022-09-21T13:55:21;1.00;;;0.60;;
10293;SDS011;5192;50.328;7.610;2022-09-21T13:58:05;2.08;;;0.63;;
10293;SDS011;5192;50.328;7.610;2022-09-21T14:00:53;1.13;;;0.73;;
10293;SDS011;5192;50.328;7.610;2022-09-21T14:03:34;1.58;;;0.70;;
10293;SDS011;5192;50.328;7.610;2022-09-21T14:06:06;0.70;;;0.70;;
10293;SDS011;5192;50.328;7.610;2022-09-21T14:08:37;1.15;;;0.80;;
10293;SDS011;5192;50.328;7.610;2022-09-21T14:24:35;0.65;;;0.50;;
10293;SDS011;5192;50.328;7.610;2022-09-21T14:32:32;1.67;;;0.70;;
10293;SDS011;5192;50.328;7.610;2022-09-21T14:35:06;0.90;;;0.60;;
10293;SDS011;5192;50.328;7.610;2022-09-21T14:37:41;0.80;;;0.60;;
10293;SDS011;5192;50.328;7.610;2022-09-21T14:40:16;0.63;;;0.60;;
10293;SDS011;5192;50.328;7.610;2022-09-21T14:42:48;0.82;;;0.45;;
10293;SDS011;5192;50.328;7.610;2022-09-21T14:45:23;1.27;;;0.70;;
10293;SDS011;5192;50.328;7.610;2022-09-21T14:48:10;0.63;;;0.53;;
10293;SDS011;5192;50.328;7.610;2022-09-21T14:50:49;1.95;;;0.70;;
10293;SDS011;5192;50.328;7.610;2022-09-21T14:53:28;0.83;;;0.60;;
10293;SDS011;5192;50.328;7.610;2022-09-21T14:56:19;1.23;;;0.73;;
10293;SDS011;5192;50.328;7.610;2022-09-21T15:01:59;1.13;;;0.80;;
10293;SDS011;5192;50.328;7.610;2022-09-21T15:16:44;1.50;;;0.67;;
10293;SDS011;5192;50.328;7.610;2022-09-21T15:21:46;1.03;;;0.80;;
10293;SDS011;5192;50.328;7.610;2022-09-21T15:27:18;1.37;;;0.73;;
10293;SDS011;5192;50.328;7.610;2022-09-21T15:29:51;0.80;;;0.80;;
10293;SDS011;5192;50.328;7.610;2022-09-21T15:35:06;0.93;;;0.70;;
10293;SDS011;5192;50.328;7.610;2022-09-21T15:37:57;1.10;;;0.70;;
10293;SDS011;5192;50.328;7.610;2022-09-21T15:40:33;2.23;;;0.80;;
10293;SDS011;5192;50.328;7.610;2022-09-21T15:48:24;2.10;;;0.73;;
10293;SDS011;5192;50.328;7.610;2022-09-21T15:51:18;1.43;;;0.70;;
10293;SDS011;5192;50.328;7.610;2022-09-21T15:53:53;1.50;;;0.83;;
10293;SDS011;5192;50.328;7.610;2022-09-21T15:56:29;0.93;;;0.77;;
10293;SDS011;5192;50.328;7.610;2022-09-21T15:58:59;1.37;;;0.80;;
10293;SDS011;5192;50.328;7.610;2022-09-21T16:01:39;4.00;;;0.90;;
10293;SDS011;5192;50.328;7.610;2022-09-21T16:04:10;3.10;;;1.10;;
10293;SDS011;5192;50.328;7.610;2022-09-21T16:06:40;1.92;;;1.00;;
10293;SDS011;5192;50.328;7.610;2022-09-21T16:11:49;2.30;;;0.90;;
10293;SDS011;5192;50.328;7.610;2022-09-21T16:14:19;3.13;;;1.10;;
10293;SDS011;5192;50.328;7.610;2022-09-21T16:22:37;1.63;;;0.75;;
10293;SDS011;5192;50.328;7.610;2022-09-21T16:25:39;1.25;;;0.90;;
10293;SDS011;5192;50.328;7.610;2022-09-21T16:28:05;1.50;;;0.93;;
10293;SDS011;5192;50.328;7.610;2022-09-21T16:30:51;1.13;;;1.00;;
10293;SDS011;5192;50.328;7.610;2022-09-21T16:34:19;1.00;;;0.70;;
10293;SDS011;5192;50.328;7.610;2022-09-21T16:38:56;1.70;;;0.80;;
10293;SDS011;5192;50.328;7.610;2022-09-21T16:41:23;1.77;;;1.10;;
10293;SDS011;5192;50.328;7.610;2022-09-21T16:43:58;2.17;;;0.90;;
10293;SDS011;5192;50.328;7.610;2022-09-21T16:46:24;1.90;;;1.20;;
10293;SDS011;5192;50.328;7.610;2022-09-21T16:48:51;3.20;;;0.90;;
10293;SDS011;5192;50.328;7.610;2022-09-21T16:51:19;3.50;;;0.90;;
10293;SDS011;5192;50.328;7.610;2022-09-21T16:53:49;1.10;;;1.00;;
10293;SDS011;5192;50.328;7.610;2022-09-21T16:56:15;2.30;;;0.90;;
10293;SDS011;5192;50.328;7.610;2022-09-21T16:58:44;1.67;;;0.80;;
10293;SDS011;5192;50.328;7.610;2022-09-21T17:01:15;1.07;;;0.80;;
10293;SDS011;5192;50.328;7.610;2022-09-21T17:03:44;2.53;;;0.90;;
10293;SDS011;5192;50.328;7.610;2022-09-21T17:06:15;1.60;;;0.97;;
10293;SDS011;5192;50.328;7.610;2022-09-21T17:08:43;2.37;;;0.80;;
10293;SDS011;5192;50.328;7.610;2022-09-21T17:11:12;3.37;;;1.20;;
10293;SDS011;5192;50.328;7.610;2022-09-21T17:13:49;1.03;;;0.70;;
10293;SDS011;5192;50.328;7.610;2022-09-21T17:16:15;1.13;;;0.83;;
10293;SDS011;5192;50.328;7.610;2022-09-21T17:18:47;1.87;;;1.00;;
10293;SDS011;5192;50.328;7.610;2022-09-21T17:21:13;1.83;;;0.90;;
10293;SDS011;5192;50.328;7.610;2022-09-21T17:23:40;2.47;;;1.07;;
10293;SDS011;5192;50.328;7.610;2022-09-21T17:26:13;2.80;;;1.07;;
10293;SDS011;5192;50.328;7.610;2022-09-21T17:28:43;2.17;;;0.97;;
10293;SDS011;5192;50.328;7.610;2022-09-21T17:31:13;1.87;;;0.93;;
10293;SDS011;5192;50.328;7.610;2022-09-21T17:33:43;2.83;;;1.30;;
10293;SDS011;5192;50.328;7.610;2022-09-21T17:36:12;3.83;;;1.20;;
10293;SDS011;5192;50.328;7.610;2022-09-21T17:38:38;2.23;;;0.90;;
10293;SDS011;5192;50.328;7.610;2022-09-21T17:41:15;1.10;;;1.00;;
10293;SDS011;5192;50.328;7.610;2022-09-21T17:43:51;2.30;;;1.17;;
10293;SDS011;5192;50.328;7.610;2022-09-21T17:49:03;3.50;;;1.50;;
10293;SDS011;5192;50.328;7.610;2022-09-21T17:51:29;3.47;;;0.90;;
10293;SDS011;5192;50.328;7.610;2022-09-21T17:54:14;2.80;;;1.13;;
10293;SDS011;5192;50.328;7.610;2022-09-21T17:56:44;2.87;;;1.17;;
10293;SDS011;5192;50.328;7.610;2022-09-21T18:01:52;2.10;;;1.20;;
10293;SDS011;5192;50.328;7.610;2022-09-21T18:04:18;2.20;;;0.90;;
10293;SDS011;5192;50.328;7.610;2022-09-21T18:06:44;2.83;;;1.17;;
10293;SDS011;5192;50.328;7.610;2022-09-21T18:09:10;4.23;;;1.23;;
10293;SDS011;5192;50.328;7.610;2022-09-21T18:22:33;1.43;;;1.00;;
10293;SDS011;5192;50.328;7.610;2022-09-21T18:25:15;4.17;;;0.90;;
10293;SDS011;5192;50.328;7.610;2022-09-21T18:28:22;0.90;;;0.83;;
10293;SDS011;5192;50.328;7.610;2022-09-21T18:31:00;1.53;;;0.73;;
10293;SDS011;5192;50.328;7.610;2022-09-21T18:33:30;2.40;;;0.90;;
10293;SDS011;5192;50.328;7.610;2022-09-21T18:36:07;3.30;;;1.00;;
10293;SDS011;5192;50.328;7.610;2022-09-21T18:38:37;1.10;;;1.00;;
10293;SDS011;5192;50.328;7.610;2022-09-21T18:41:35;2.00;;;1.13;;
10293;SDS011;5192;50.328;7.610;2022-09-21T18:52:06;0.90;;;0.90;;
10293;SDS011;5192;50.328;7.610;2022-09-21T18:54:44;3.03;;;1.03;;
10293;SDS011;5192;50.328;7.610;2022-09-21T18:57:10;3.60;;;1.13;;
10293;SDS011;5192;50.328;7.610;2022-09-21T18:59:37;1.57;;;1.03;;
10293;SDS011;5192;50.328;7.610;2022-09-21T19:02:07;1.33;;;1.07;;
10293;SDS011;5192;50.328;7.610;2022-09-21T19:04:40;2.33;;;0.97;;
10293;SDS011;5192;50.328;7.610;2022-09-21T19:12:45;0.77;;;0.77;;
10293;SDS011;5192;50.328;7.610;2022-09-21T19:24:06;1.60;;;1.13;;
10293;SDS011;5192;50.328;7.610;2022-09-21T19:29:48;4.30;;;1.10;;
10293;SDS011;5192;50.328;7.610;2022-09-21T19:33:05;1.63;;;0.90;;
10293;SDS011;5192;50.328;7.610;2022-09-21T19:37:45;3.33;;;1.60;;
10293;SDS011;5192;50.328;7.610;2022-09-21T19:40:13;1.30;;;1.20;;
10293;SDS011;5192;50.328;7.610;2022-09-21T19:45:25;2.63;;;0.77;;
10293;SDS011;5192;50.328;7.610;2022-09-21T19:48:03;1.63;;;0.90;;
10293;SDS011;5192;50.328;7.610;2022-09-21T19:50:40;1.60;;;1.00;;
10293;SDS011;5192;50.328;7.610;2022-09-21T19:53:11;1.23;;;1.13;;
10293;SDS011;5192;50.328;7.610;2022-09-21T19:56:00;3.07;;;1.10;;
10293;SDS011;5192;50.328;7.610;2022-09-21T19:58:44;3.27;;;1.07;;
10293;SDS011;5192;50.328;7.610;2022-09-21T20:01:30;4.70;;;1.20;;
10293;SDS011;5192;50.328;7.610;2022-09-21T20:03:59;4.57;;;1.27;;